Aultman, Pennsylvania
Current Conditions -  °F | °C
As of 8:35 PM on Sunday 23 Nov 2014 (Local Time) from KIDI Reporting Station
Broken Clouds Broken Clouds  
Wind Chill: 54°   Ceiling: 11000
Heat Index: 54°   Visibility: 10mi
Dew Point: 39°   Wind: 14mph
Humidity: 58%   Direction: 170°S
Pressure: 29.8"   Gusts: 25mph
Location:  40.56°N, 79.26°W
Report Text: KIDI 240135Z AUTO 17012G22KT 10SM FEW065 SCT075 BKN110 12/04 A2980 RMK A01
Loading
Personal Weather Stations






























Interactive Weather Map New forecast layout! Learn more

10-Day Weather Forecast

Advertisements
Track Severe Weather on mobile